sensor_id;sensor_type;location;lat;lon;timestamp;pressure;altitude;pressure_sealevel;temperature;humidity
3260;BME280;68938;48.150;14.004;2023-04-01T00:01:31;96752.34;;;12.92;51.81
3260;BME280;68938;48.150;14.004;2023-04-01T00:03:58;96758.16;;;13.22;51.52
3260;BME280;68938;48.150;14.004;2023-04-01T00:06:27;96761.22;;;13.15;51.33
3260;BME280;68938;48.150;14.004;2023-04-01T00:08:54;96749.13;;;13.02;51.63
3260;BME280;68938;48.150;14.004;2023-04-01T00:11:21;96750.22;;;12.98;50.90
3260;BME280;68938;48.150;14.004;2023-04-01T00:13:49;96736.16;;;13.04;51.22
3260;BME280;68938;48.150;14.004;2023-04-01T00:16:16;96753.69;;;13.12;51.21
3260;BME280;68938;48.150;14.004;2023-04-01T00:18:49;96754.75;;;13.22;50.55
3260;BME280;68938;48.150;14.004;2023-04-01T00:21:18;96754.41;;;13.28;51.41
3260;BME280;68938;48.150;14.004;2023-04-01T00:23:45;96758.56;;;13.58;50.48
3260;BME280;68938;48.150;14.004;2023-04-01T00:26:12;96763.91;;;13.67;50.33
3260;BME280;68938;48.150;14.004;2023-04-01T00:28:40;96756.31;;;13.66;50.41
3260;BME280;68938;48.150;14.004;2023-04-01T00:31:08;96760.28;;;13.16;51.80
3260;BME280;68938;48.150;14.004;2023-04-01T00:33:36;96758.31;;;13.48;51.01
3260;BME280;68938;48.150;14.004;2023-04-01T00:36:11;96754.47;;;13.81;50.82
3260;BME280;68938;48.150;14.004;2023-04-01T00:38:41;96757.66;;;13.71;50.16
3260;BME280;68938;48.150;14.004;2023-04-01T00:41:10;96762.13;;;13.82;50.28
3260;BME280;68938;48.150;14.004;2023-04-01T00:43:37;96759.63;;;13.68;50.91
3260;BME280;68938;48.150;14.004;2023-04-01T00:46:04;96758.63;;;13.56;50.88
3260;BME280;68938;48.150;14.004;2023-04-01T00:48:36;96751.28;;;13.77;50.69
3260;BME280;68938;48.150;14.004;2023-04-01T00:51:11;96757.56;;;13.46;50.84
3260;BME280;68938;48.150;14.004;2023-04-01T00:53:45;96762.34;;;13.11;51.25
3260;BME280;68938;48.150;14.004;2023-04-01T00:56:19;96760.09;;;13.33;51.17
3260;BME280;68938;48.150;14.004;2023-04-01T00:58:52;96759.78;;;13.11;51.25
3260;BME280;68938;48.150;14.004;2023-04-01T01:01:24;96745.53;;;13.05;51.73
3260;BME280;68938;48.150;14.004;2023-04-01T01:03:51;96754.19;;;13.04;51.75
3260;BME280;68938;48.150;14.004;2023-04-01T01:25:21;96755.34;;;13.27;52.77
3260;BME280;68938;48.150;14.004;2023-04-01T01:36:34;96745.19;;;13.38;52.30
3260;BME280;68938;48.150;14.004;2023-04-01T01:39:04;96739.69;;;13.16;52.54
3260;BME280;68938;48.150;14.004;2023-04-01T01:41:33;96749.44;;;12.84;53.47
3260;BME280;68938;48.150;14.004;2023-04-01T01:44:03;96747.19;;;13.06;53.26
3260;BME280;68938;48.150;14.004;2023-04-01T01:46:33;96752.78;;;12.98;54.08
3260;BME280;68938;48.150;14.004;2023-04-01T01:49:01;96756.13;;;13.00;54.01
3260;BME280;68938;48.150;14.004;2023-04-01T01:51:29;96744.94;;;12.73;54.41
3260;BME280;68938;48.150;14.004;2023-04-01T01:53:56;96755.28;;;13.00;53.63
3260;BME280;68938;48.150;14.004;2023-04-01T01:56:26;96745.69;;;13.16;53.65
3260;BME280;68938;48.150;14.004;2023-04-01T01:59:04;96751.25;;;12.96;53.26
3260;BME280;68938;48.150;14.004;2023-04-01T02:01:37;96755.66;;;12.94;53.96
3260;BME280;68938;48.150;14.004;2023-04-01T02:04:09;96750.47;;;12.67;54.51
3260;BME280;68938;48.150;14.004;2023-04-01T02:06:41;96758.63;;;12.73;54.34
3260;BME280;68938;48.150;14.004;2023-04-01T02:09:13;96751.34;;;12.94;54.42
3260;BME280;68938;48.150;14.004;2023-04-01T02:11:48;96753.78;;;12.69;55.16
3260;BME280;68938;48.150;14.004;2023-04-01T02:14:30;96761.03;;;12.62;55.40
3260;BME280;68938;48.150;14.004;2023-04-01T02:17:07;96762.56;;;12.36;56.30
3260;BME280;68938;48.150;14.004;2023-04-01T02:19:52;96760.72;;;12.24;57.94
3260;BME280;68938;48.150;14.004;2023-04-01T02:22:24;96763.88;;;12.43;58.03
3260;BME280;68938;48.150;14.004;2023-04-01T02:24:57;96757.78;;;12.44;58.20
3260;BME280;68938;48.150;14.004;2023-04-01T02:27:25;96754.69;;;12.25;59.11
3260;BME280;68938;48.150;14.004;2023-04-01T02:29:52;96755.50;;;12.40;59.53
3260;BME280;68938;48.150;14.004;2023-04-01T02:32:20;96758.56;;;11.72;60.53
3260;BME280;68938;48.150;14.004;2023-04-01T02:34:48;96757.81;;;11.85;60.82
3260;BME280;68938;48.150;14.004;2023-04-01T02:37:16;96765.44;;;11.71;60.79
3260;BME280;68938;48.150;14.004;2023-04-01T02:39:43;96760.13;;;11.74;60.98
3260;BME280;68938;48.150;14.004;2023-04-01T02:42:10;96768.72;;;11.89;60.61
3260;BME280;68938;48.150;14.004;2023-04-01T02:44:37;96758.19;;;11.63;61.55
3260;BME280;68938;48.150;14.004;2023-04-01T02:47:04;96758.75;;;11.99;60.96
3260;BME280;68938;48.150;14.004;2023-04-01T02:49:31;96759.41;;;12.02;60.50
3260;BME280;68938;48.150;14.004;2023-04-01T02:51:58;96758.06;;;12.11;60.36
3260;BME280;68938;48.150;14.004;2023-04-01T02:54:25;96750.41;;;12.09;59.81
3260;BME280;68938;48.150;14.004;2023-04-01T02:56:52;96759.22;;;11.75;60.57
3260;BME280;68938;48.150;14.004;2023-04-01T02:59:18;96765.53;;;12.00;60.12
3260;BME280;68938;48.150;14.004;2023-04-01T03:01:45;96758.38;;;11.75;60.95
3260;BME280;68938;48.150;14.004;2023-04-01T03:04:12;96760.69;;;11.79;61.29
3260;BME280;68938;48.150;14.004;2023-04-01T03:06:39;96764.09;;;12.10;60.42
3260;BME280;68938;48.150;14.004;2023-04-01T03:09:06;96768.22;;;11.82;61.58
3260;BME280;68938;48.150;14.004;2023-04-01T03:11:33;96772.75;;;12.23;60.40
3260;BME280;68938;48.150;14.004;2023-04-01T03:14:00;96771.22;;;12.21;60.34
3260;BME280;68938;48.150;14.004;2023-04-01T03:16:26;96781.56;;;12.19;60.66
3260;BME280;68938;48.150;14.004;2023-04-01T03:18:53;96785.34;;;12.28;60.23
3260;BME280;68938;48.150;14.004;2023-04-01T03:21:23;96791.31;;;11.84;62.04
3260;BME280;68938;48.150;14.004;2023-04-01T03:23:51;96795.72;;;11.96;62.92
3260;BME280;68938;48.150;14.004;2023-04-01T03:26:19;96796.38;;;12.00;63.46
3260;BME280;68938;48.150;14.004;2023-04-01T03:28:46;96792.91;;;12.01;64.51
3260;BME280;68938;48.150;14.004;2023-04-01T03:31:13;96787.00;;;12.29;64.07
3260;BME280;68938;48.150;14.004;2023-04-01T03:33:40;96784.78;;;12.23;64.72
3260;BME280;68938;48.150;14.004;2023-04-01T03:36:07;96784.22;;;12.18;65.14
3260;BME280;68938;48.150;14.004;2023-04-01T03:38:35;96792.19;;;12.13;65.85
3260;BME280;68938;48.150;14.004;2023-04-01T03:41:02;96796.16;;;11.89;66.37
3260;BME280;68938;48.150;14.004;2023-04-01T03:43:29;96791.84;;;11.89;66.50
3260;BME280;68938;48.150;14.004;2023-04-01T03:45:56;96793.81;;;12.00;66.22
3260;BME280;68938;48.150;14.004;2023-04-01T03:48:23;96787.44;;;12.07;66.41
3260;BME280;68938;48.150;14.004;2023-04-01T03:50:51;96792.13;;;12.15;65.85
3260;BME280;68938;48.150;14.004;2023-04-01T03:53:18;96790.00;;;12.07;66.11
3260;BME280;68938;48.150;14.004;2023-04-01T03:55:45;96796.22;;;12.03;65.55
3260;BME280;68938;48.150;14.004;2023-04-01T03:58:11;96798.13;;;11.99;65.77
3260;BME280;68938;48.150;14.004;2023-04-01T04:00:39;96805.06;;;11.67;65.70
3260;BME280;68938;48.150;14.004;2023-04-01T04:03:06;96811.69;;;11.71;66.96
3260;BME280;68938;48.150;14.004;2023-04-01T04:05:33;96802.72;;;11.78;66.43
3260;BME280;68938;48.150;14.004;2023-04-01T04:08:01;96806.38;;;11.74;66.31
3260;BME280;68938;48.150;14.004;2023-04-01T04:10:28;96806.38;;;11.74;66.69
3260;BME280;68938;48.150;14.004;2023-04-01T04:12:56;96816.31;;;11.65;66.39
3260;BME280;68938;48.150;14.004;2023-04-01T04:15:23;96819.16;;;11.60;67.10
3260;BME280;68938;48.150;14.004;2023-04-01T04:17:50;96822.56;;;11.60;66.40
3260;BME280;68938;48.150;14.004;2023-04-01T04:20:17;96821.88;;;11.73;65.93
3260;BME280;68938;48.150;14.004;2023-04-01T04:22:43;96816.31;;;11.80;65.75
3260;BME280;68938;48.150;14.004;2023-04-01T04:25:10;96821.16;;;11.87;65.29
3260;BME280;68938;48.150;14.004;2023-04-01T04:27:37;96825.59;;;11.83;65.26
3260;BME280;68938;48.150;14.004;2023-04-01T04:30:05;96826.75;;;11.77;65.52
3260;BME280;68938;48.150;14.004;2023-04-01T04:32:33;96827.69;;;11.60;65.28
3260;BME280;68938;48.150;14.004;2023-04-01T04:35:00;96826.88;;;11.44;66.52
3260;BME280;68938;48.150;14.004;2023-04-01T04:37:27;96839.72;;;11.28;67.55
3260;BME280;68938;48.150;14.004;2023-04-01T04:39:54;96843.03;;;11.46;66.75
3260;BME280;68938;48.150;14.004;2023-04-01T04:42:21;96841.13;;;11.50;66.56
3260;BME280;68938;48.150;14.004;2023-04-01T04:44:48;96842.28;;;11.60;66.35
3260;BME280;68938;48.150;14.004;2023-04-01T04:47:15;96847.56;;;11.41;66.94
3260;BME280;68938;48.150;14.004;2023-04-01T04:49:42;96841.03;;;11.35;66.96
3260;BME280;68938;48.150;14.004;2023-04-01T04:52:09;96840.03;;;11.38;67.14
3260;BME280;68938;48.150;14.004;2023-04-01T04:54:36;96840.13;;;11.36;67.62
3260;BME280;68938;48.150;14.004;2023-04-01T04:57:03;96837.31;;;11.25;67.43
3260;BME280;68938;48.150;14.004;2023-04-01T04:59:31;96841.13;;;11.18;67.62
3260;BME280;68938;48.150;14.004;2023-04-01T05:01:57;96848.81;;;11.34;67.62
3260;BME280;68938;48.150;14.004;2023-04-01T05:04:24;96843.94;;;11.29;67.71
3260;BME280;68938;48.150;14.004;2023-04-01T05:06:51;96842.75;;;11.03;68.30
3260;BME280;68938;48.150;14.004;2023-04-01T05:09:18;96842.16;;;11.14;68.16
3260;BME280;68938;48.150;14.004;2023-04-01T05:11:45;96853.22;;;11.32;67.26
3260;BME280;68938;48.150;14.004;2023-04-01T05:14:15;96841.97;;;10.85;68.80
3260;BME280;68938;48.150;14.004;2023-04-01T05:16:43;96849.41;;;10.90;69.54
3260;BME280;68938;48.150;14.004;2023-04-01T05:19:10;96855.16;;;10.95;68.92
3260;BME280;68938;48.150;14.004;2023-04-01T05:21:36;96851.81;;;10.93;69.51
3260;BME280;68938;48.150;14.004;2023-04-01T05:24:07;96862.97;;;10.59;70.44
3260;BME280;68938;48.150;14.004;2023-04-01T05:26:35;96865.91;;;10.68;70.58
3260;BME280;68938;48.150;14.004;2023-04-01T05:29:04;96860.44;;;10.92;69.46
3260;BME280;68938;48.150;14.004;2023-04-01T05:31:31;96866.19;;;11.13;68.91
3260;BME280;68938;48.150;14.004;2023-04-01T05:33:58;96858.06;;;11.21;68.01
3260;BME280;68938;48.150;14.004;2023-04-01T05:36:25;96862.66;;;11.47;67.65
3260;BME280;68938;48.150;14.004;2023-04-01T05:38:55;96870.84;;;10.89;68.82
3260;BME280;68938;48.150;14.004;2023-04-01T05:41:22;96873.47;;;10.54;70.93
3260;BME280;68938;48.150;14.004;2023-04-01T05:43:49;96864.69;;;10.76;70.37
3260;BME280;68938;48.150;14.004;2023-04-01T05:46:16;96856.94;;;11.26;69.21
3260;BME280;68938;48.150;14.004;2023-04-01T05:48:43;96858.81;;;11.07;69.66
3260;BME280;68938;48.150;14.004;2023-04-01T05:51:16;96861.47;;;11.05;69.44
3260;BME280;68938;48.150;14.004;2023-04-01T05:53:43;96862.44;;;11.03;70.15
3260;BME280;68938;48.150;14.004;2023-04-01T05:56:10;96863.09;;;11.06;69.40
3260;BME280;68938;48.150;14.004;2023-04-01T05:58:37;96872.19;;;10.96;69.32
3260;BME280;68938;48.150;14.004;2023-04-01T06:01:10;96871.88;;;11.02;69.75
3260;BME280;68938;48.150;14.004;2023-04-01T06:03:42;96871.13;;;11.00;69.36
3260;BME280;68938;48.150;14.004;2023-04-01T06:06:29;96868.13;;;11.57;67.64
3260;BME280;68938;48.150;14.004;2023-04-01T06:09:07;96867.84;;;11.77;67.31
3260;BME280;68938;48.150;14.004;2023-04-01T06:24:07;96868.50;;;11.65;66.44
3260;BME280;68938;48.150;14.004;2023-04-01T06:27:02;96868.78;;;11.76;66.48
3260;BME280;68938;48.150;14.004;2023-04-01T06:32:45;96871.84;;;11.67;67.74
3260;BME280;68938;48.150;14.004;2023-04-01T06:36:14;96864.81;;;11.87;67.16
3260;BME280;68938;48.150;14.004;2023-04-01T06:53:47;96879.78;;;11.94;65.05
3260;BME280;68938;48.150;14.004;2023-04-01T06:56:26;96876.47;;;11.92;65.07
3260;BME280;68938;48.150;14.004;2023-04-01T07:01:57;96876.66;;;12.19;62.45
3260;BME280;68938;48.150;14.004;2023-04-01T07:04:31;96881.81;;;12.49;60.23
3260;BME280;68938;48.150;14.004;2023-04-01T07:07:21;96879.25;;;12.78;59.74
3260;BME280;68938;48.150;14.004;2023-04-01T07:09:56;96894.69;;;12.64;59.97
3260;BME280;68938;48.150;14.004;2023-04-01T07:15:01;96890.28;;;12.66;58.35
3260;BME280;68938;48.150;14.004;2023-04-01T07:17:33;96882.59;;;13.09;57.74
3260;BME280;68938;48.150;14.004;2023-04-01T07:20:11;96888.56;;;12.80;58.12
3260;BME280;68938;48.150;14.004;2023-04-01T07:22:45;96884.53;;;13.05;57.47
3260;BME280;68938;48.150;14.004;2023-04-01T07:25:21;96884.16;;;13.11;57.61
3260;BME280;68938;48.150;14.004;2023-04-01T07:27:50;96892.94;;;12.78;57.35
3260;BME280;68938;48.150;14.004;2023-04-01T07:30:19;96879.53;;;12.73;57.22
3260;BME280;68938;48.150;14.004;2023-04-01T07:33:04;96888.03;;;13.04;57.50
3260;BME280;68938;48.150;14.004;2023-04-01T07:38:38;96883.69;;;13.33;56.54
3260;BME280;68938;48.150;14.004;2023-04-01T07:44:16;96882.59;;;13.51;56.41
3260;BME280;68938;48.150;14.004;2023-04-01T07:47:29;96899.78;;;13.22;53.85
3260;BME280;68938;48.150;14.004;2023-04-01T08:04:32;96897.53;;;13.73;54.46
3260;BME280;68938;48.150;14.004;2023-04-01T08:10:13;96899.22;;;13.46;53.91
3260;BME280;68938;48.150;14.004;2023-04-01T08:16:26;96900.06;;;13.61;53.09
3260;BME280;68938;48.150;14.004;2023-04-01T08:22:01;96897.50;;;13.32;55.04
3260;BME280;68938;48.150;14.004;2023-04-01T08:24:39;96890.59;;;13.47;54.23
3260;BME280;68938;48.150;14.004;2023-04-01T08:27:35;96888.84;;;13.47;53.62
3260;BME280;68938;48.150;14.004;2023-04-01T08:30:24;96892.41;;;13.59;52.49
3260;BME280;68938;48.150;14.004;2023-04-01T08:32:56;96880.28;;;13.61;52.65
3260;BME280;68938;48.150;14.004;2023-04-01T08:35:29;96890.09;;;13.96;52.24
3260;BME280;68938;48.150;14.004;2023-04-01T08:38:52;96884.75;;;13.72;52.01
3260;BME280;68938;48.150;14.004;2023-04-01T08:42:12;96883.53;;;13.50;52.27
3260;BME280;68938;48.150;14.004;2023-04-01T08:56:34;96879.63;;;14.12;51.11
3260;BME280;68938;48.150;14.004;2023-04-01T09:06:01;96874.75;;;14.47;50.47
3260;BME280;68938;48.150;14.004;2023-04-01T09:29:05;96880.38;;;15.05;48.62
3260;BME280;68938;48.150;14.004;2023-04-01T09:53:17;96868.84;;;14.98;47.71
3260;BME280;68938;48.150;14.004;2023-04-01T09:59:40;96868.94;;;14.71;47.52
3260;BME280;68938;48.150;14.004;2023-04-01T10:03:05;96874.38;;;14.66;48.51
3260;BME280;68938;48.150;14.004;2023-04-01T10:32:04;96859.75;;;15.41;47.95
3260;BME280;68938;48.150;14.004;2023-04-01T10:40:37;96851.44;;;15.86;45.63
3260;BME280;68938;48.150;14.004;2023-04-01T10:46:41;96828.66;;;16.15;47.09
3260;BME280;68938;48.150;14.004;2023-04-01T11:22:56;96797.03;;;16.23;42.86
3260;BME280;68938;48.150;14.004;2023-04-01T11:37:29;96775.34;;;16.59;41.63
3260;BME280;68938;48.150;14.004;2023-04-01T11:40:41;96777.81;;;16.61;41.90
3260;BME280;68938;48.150;14.004;2023-04-01T11:43:21;96770.03;;;16.49;40.91
3260;BME280;68938;48.150;14.004;2023-04-01T11:46:16;96772.09;;;16.79;41.09
3260;BME280;68938;48.150;14.004;2023-04-01T11:52:03;96762.72;;;16.32;41.06
3260;BME280;68938;48.150;14.004;2023-04-01T12:03:37;96742.75;;;17.45;40.77
3260;BME280;68938;48.150;14.004;2023-04-01T12:21:42;96834.81;;;14.40;56.35
3260;BME280;68938;48.150;14.004;2023-04-01T12:33:04;96802.88;;;15.17;55.53
3260;BME280;68938;48.150;14.004;2023-04-01T12:36:18;96800.34;;;14.92;55.23
3260;BME280;68938;48.150;14.004;2023-04-01T12:39:15;96799.50;;;15.04;55.33
3260;BME280;68938;48.150;14.004;2023-04-01T12:42:18;96798.84;;;15.50;53.77
3260;BME280;68938;48.150;14.004;2023-04-01T12:50:59;96792.22;;;15.59;51.36
3260;BME280;68938;48.150;14.004;2023-04-01T13:02:19;96781.78;;;16.42;50.18
3260;BME280;68938;48.150;14.004;2023-04-01T13:05:09;96781.31;;;16.37;49.57
3260;BME280;68938;48.150;14.004;2023-04-01T13:10:25;96789.94;;;16.71;49.19
3260;BME280;68938;48.150;14.004;2023-04-01T13:16:07;96792.31;;;16.97;46.81
3260;BME280;68938;48.150;14.004;2023-04-01T13:18:57;96797.84;;;16.81;47.48
3260;BME280;68938;48.150;14.004;2023-04-01T13:21:57;96797.59;;;16.73;48.35
3260;BME280;68938;48.150;14.004;2023-04-01T13:30:16;96800.53;;;17.24;46.61
3260;BME280;68938;48.150;14.004;2023-04-01T13:32:55;96803.09;;;17.36;47.66
3260;BME280;68938;48.150;14.004;2023-04-01T13:41:56;96828.47;;;16.98;48.74
3260;BME280;68938;48.150;14.004;2023-04-01T13:44:40;96822.81;;;17.04;48.76
3260;BME280;68938;48.150;14.004;2023-04-01T13:59:06;96840.03;;;15.77;50.77
3260;BME280;68938;48.150;14.004;2023-04-01T14:26:26;96845.34;;;15.13;49.58
3260;BME280;68938;48.150;14.004;2023-04-01T14:48:03;96904.75;;;12.83;66.81
3260;BME280;68938;48.150;14.004;2023-04-01T14:50:27;96906.69;;;13.08;68.11
3260;BME280;68938;48.150;14.004;2023-04-01T14:55:52;96911.66;;;13.11;67.17
3260;BME280;68938;48.150;14.004;2023-04-01T14:58:23;96906.22;;;13.15;66.75
3260;BME280;68938;48.150;14.004;2023-04-01T15:18:08;96923.97;;;12.61;68.14
3260;BME280;68938;48.150;14.004;2023-04-01T15:30:19;96915.78;;;13.13;65.60
3260;BME280;68938;48.150;14.004;2023-04-01T15:33:15;96918.75;;;13.36;64.11
3260;BME280;68938;48.150;14.004;2023-04-01T15:55:50;96940.81;;;13.25;61.57
3260;BME280;68938;48.150;14.004;2023-04-01T16:01:04;96939.44;;;13.20;60.88
3260;BME280;68938;48.150;14.004;2023-04-01T16:09:52;96948.16;;;13.17;61.18
3260;BME280;68938;48.150;14.004;2023-04-01T16:15:37;96955.00;;;12.88;61.32
3260;BME280;68938;48.150;14.004;2023-04-01T16:29:49;96969.47;;;13.05;60.66
3260;BME280;68938;48.150;14.004;2023-04-01T16:38:20;96976.47;;;13.17;61.13
3260;BME280;68938;48.150;14.004;2023-04-01T16:44:08;96998.34;;;12.66;62.22
3260;BME280;68938;48.150;14.004;2023-04-01T16:46:46;97003.03;;;12.43;63.19
3260;BME280;68938;48.150;14.004;2023-04-01T16:49:42;97009.13;;;12.56;62.22
3260;BME280;68938;48.150;14.004;2023-04-01T16:52:17;97007.22;;;12.44;61.91
3260;BME280;68938;48.150;14.004;2023-04-01T16:55:17;96997.28;;;12.54;61.91
3260;BME280;68938;48.150;14.004;2023-04-01T16:57:52;97009.13;;;12.56;61.39
3260;BME280;68938;48.150;14.004;2023-04-01T17:00:39;97010.41;;;12.33;62.57
3260;BME280;68938;48.150;14.004;2023-04-01T17:08:53;97002.22;;;12.11;62.90
3260;BME280;68938;48.150;14.004;2023-04-01T17:15:02;97005.00;;;11.75;65.11
3260;BME280;68938;48.150;14.004;2023-04-01T17:17:49;96999.50;;;12.14;64.01
3260;BME280;68938;48.150;14.004;2023-04-01T17:20:49;96998.72;;;11.80;66.13
3260;BME280;68938;48.150;14.004;2023-04-01T17:23:45;97004.72;;;11.97;64.74
3260;BME280;68938;48.150;14.004;2023-04-01T17:28:52;97010.16;;;12.06;65.59
3260;BME280;68938;48.150;14.004;2023-04-01T17:49:26;97031.25;;;11.64;65.83
3260;BME280;68938;48.150;14.004;2023-04-01T18:21:07;97047.00;;;12.07;64.36
3260;BME280;68938;48.150;14.004;2023-04-01T18:23:47;97047.91;;;12.06;64.54
3260;BME280;68938;48.150;14.004;2023-04-01T18:26:35;97046.72;;;11.96;64.69
3260;BME280;68938;48.150;14.004;2023-04-01T18:32:07;97054.47;;;12.27;64.15
3260;BME280;68938;48.150;14.004;2023-04-01T18:37:28;97052.41;;;12.18;64.17
3260;BME280;68938;48.150;14.004;2023-04-01T18:46:00;97067.25;;;11.80;66.63
3260;BME280;68938;48.150;14.004;2023-04-01T18:54:27;97063.25;;;12.07;65.51
3260;BME280;68938;48.150;14.004;2023-04-01T18:57:10;97063.47;;;12.03;65.62
3260;BME280;68938;48.150;14.004;2023-04-01T18:59:48;97069.72;;;12.30;64.52
3260;BME280;68938;48.150;14.004;2023-04-01T19:05:34;97077.03;;;12.38;65.08
3260;BME280;68938;48.150;14.004;2023-04-01T19:08:34;97073.22;;;12.45;65.45
3260;BME280;68938;48.150;14.004;2023-04-01T19:11:30;97080.34;;;12.56;65.50
3260;BME280;68938;48.150;14.004;2023-04-01T19:25:29;97076.25;;;12.20;65.31
3260;BME280;68938;48.150;14.004;2023-04-01T19:28:16;97084.16;;;12.33;65.32
3260;BME280;68938;48.150;14.004;2023-04-01T19:30:59;97081.41;;;12.20;65.35
3260;BME280;68938;48.150;14.004;2023-04-01T19:36:52;97085.47;;;12.56;64.15
3260;BME280;68938;48.150;14.004;2023-04-01T19:42:31;97083.72;;;12.56;63.94
3260;BME280;68938;48.150;14.004;2023-04-01T19:51:07;97100.06;;;12.40;63.65
3260;BME280;68938;48.150;14.004;2023-04-01T19:53:49;97102.31;;;12.14;65.27
3260;BME280;68938;48.150;14.004;2023-04-01T19:56:24;97104.06;;;12.45;64.24
3260;BME280;68938;48.150;14.004;2023-04-01T20:08:25;97113.25;;;12.33;65.15
3260;BME280;68938;48.150;14.004;2023-04-01T20:16:54;97113.41;;;12.15;65.99
3260;BME280;68938;48.150;14.004;2023-04-01T20:19:40;97112.81;;;12.09;66.10
3260;BME280;68938;48.150;14.004;2023-04-01T20:43:08;97127.63;;;12.69;63.14
3260;BME280;68938;48.150;14.004;2023-04-01T20:51:39;97123.31;;;12.70;62.58
3260;BME280;68938;48.150;14.004;2023-04-01T20:54:29;97132.56;;;12.88;62.18
3260;BME280;68938;48.150;14.004;2023-04-01T20:57:14;97120.72;;;12.86;61.92
3260;BME280;68938;48.150;14.004;2023-04-01T21:03:17;97130.97;;;13.01;61.50
3260;BME280;68938;48.150;14.004;2023-04-01T21:29:43;97134.78;;;12.48;61.34
3260;BME280;68938;48.150;14.004;2023-04-01T21:38:21;97145.63;;;12.53;60.96
3260;BME280;68938;48.150;14.004;2023-04-01T22:11:19;97182.81;;;12.15;60.99
3260;BME280;68938;48.150;14.004;2023-04-01T22:16:56;97188.47;;;12.21;61.23
3260;BME280;68938;48.150;14.004;2023-04-01T22:19:41;97189.72;;;12.14;61.59
3260;BME280;68938;48.150;14.004;2023-04-01T22:22:22;97188.38;;;11.90;61.87
3260;BME280;68938;48.150;14.004;2023-04-01T22:25:15;97193.34;;;11.75;61.21
3260;BME280;68938;48.150;14.004;2023-04-01T22:28:07;97194.94;;;11.78;62.80
3260;BME280;68938;48.150;14.004;2023-04-01T22:30:54;97195.19;;;11.56;64.02
3260;BME280;68938;48.150;14.004;2023-04-01T22:39:16;97190.78;;;11.41;64.56
3260;BME280;68938;48.150;14.004;2023-04-01T22:48:14;97191.44;;;11.27;65.45
3260;BME280;68938;48.150;14.004;2023-04-01T22:50:54;97204.81;;;11.33;64.96
3260;BME280;68938;48.150;14.004;2023-04-01T22:57:16;97198.81;;;11.69;64.14
3260;BME280;68938;48.150;14.004;2023-04-01T23:00:28;97194.75;;;12.16;62.67
3260;BME280;68938;48.150;14.004;2023-04-01T23:05:50;97195.69;;;11.80;63.65
3260;BME280;68938;48.150;14.004;2023-04-01T23:11:15;97204.13;;;12.17;63.56
3260;BME280;68938;48.150;14.004;2023-04-01T23:13:53;97200.72;;;12.49;62.43
3260;BME280;68938;48.150;14.004;2023-04-01T23:16:45;97203.53;;;12.45;62.36
3260;BME280;68938;48.150;14.004;2023-04-01T23:28:40;97214.09;;;12.56;62.48
3260;BME280;68938;48.150;14.004;2023-04-01T23:34:23;97213.19;;;12.73;61.81
3260;BME280;68938;48.150;14.004;2023-04-01T23:37:01;97212.88;;;12.79;61.50
3260;BME280;68938;48.150;14.004;2023-04-01T23:39:37;97214.03;;;12.89;61.35
3260;BME280;68938;48.150;14.004;2023-04-01T23:42:24;97209.56;;;12.93;61.44
3260;BME280;68938;48.150;14.004;2023-04-01T23:44:57;97219.75;;;12.94;61.43
3260;BME280;68938;48.150;14.004;2023-04-01T23:47:35;97218.78;;;12.97;61.16
3260;BME280;68938;48.150;14.004;2023-04-01T23:50:25;97214.69;;;12.93;60.82
3260;BME280;68938;48.150;14.004;2023-04-01T23:53:06;97210.44;;;12.92;61.07
3260;BME280;68938;48.150;14.004;2023-04-01T23:55:41;97219.06;;;12.75;61.23
